DW9658 Weather Reports


Display with metric or nautical units.
time (UTC)temp
F
wind
direction
speed
MPH
gust
MPH
rain 1hr
in
rain 24hr
in
rain mn
in
humidity
%
barometer
mb
20190722123216 0 0.0 0.0 0.00 0.00 0.00 1019.7
20190722121650 0 0.0 0.0 0.00 0.00 0.00 1019.5
20190722120139 0 0.0 0.0 0.00 0.00 0.00 1019.5
20190722114600 0 0.0 0.0 0.00 0.00 0.00 1019.5
20190722113200 0 0.0 0.0 0.00 0.00 0.00 1019.2
20190722111627 50 162 0.0 0.0 0.00 0.00 0.00 81 1019.2
20190722110102 50 162 0.0 0.0 0.00 0.00 0.00 81 1019.2
20190722104625 51 162 0.0 0.0 0.00 0.00 0.00 81 1019.2
20190722103055 51 162 0.0 0.0 0.00 0.00 0.00 80 1019.2
20190722101537 52 162 0.0 0.0 0.00 0.00 0.00 79 1019.2
20190722100043 52 162 0.0 0.0 0.00 0.00 0.00 78 1019.3
20190722094526 53 162 0.0 0.0 0.00 0.00 0.00 76 1019.3
20190722093050 53 162 0.0 0.0 0.00 0.00 0.00 78 1019.4
20190722091536 53 162 0.0 0.0 0.00 0.00 0.00 74 1019.3
20190722090040 53 162 0.0 0.0 0.00 0.00 0.00 75 1019.3
20190722084517 54 162 0.0 0.0 0.00 0.00 0.00 76 1019.3
20190722083020 54 162 0.0 0.0 0.00 0.00 0.00 73 1019.4
20190722081516 54 162 0.0 0.0 0.00 0.00 0.00 74 1019.4
20190722080008 55 162 0.0 0.0 0.00 0.00 0.00 71 1019.5
20190722074505 56 162 0.0 0.0 0.00 0.00 0.00 68 1019.2
20190722073150 56 162 0.0 0.0 0.00 0.00 0.00 68 1019.6
20190722071815 57 162 0.0 0.0 0.00 0.00 0.00 65 1019.4
20190722070148 57 162 0.0 0.0 0.00 0.00 0.00 63 1019.5
20190722064711 58 162 0.0 0.0 0.00 0.00 0.00 64 1019.6
20190722063142 58 162 0.0 0.0 0.00 0.00 0.00 64 1019.5
20190722061633 59 162 0.0 0.0 0.00 0.00 0.00 64 1019.5
20190722060102 59 162 0.0 0.0 0.00 0.00 0.00 64 1019.6
20190722054700 60 162 0.0 0.0 0.00 0.00 0.00 61 1019.6
20190722053123 61 162 0.0 0.0 0.00 0.00 0.00 59 1019.6
20190722051638 62 162 0.0 0.0 0.00 0.00 0.00 59 1019.5
20190722050135 63 162 0.0 0.0 0.00 0.00 0.00 54 1019.5
20190722044618 64 162 0.0 0.0 0.00 0.00 0.00 54 1019.4
20190722043245 66 162 0.0 0.0 0.00 0.00 0.00 49 1019.2
20190722041629 68 162 0.0 0.0 0.00 0.00 0.00 46 1018.9
20190722040134 70 162 0.0 0.0 0.00 0.00 0.00 42 1018.7
20190722034654 72 162 0.0 0.0 0.00 0.00 0.00 38 1018.5
20190722033308 73 174 0.0 1.0 0.00 0.00 0.00 34 1018.3
20190722031635 74 174 0.0 1.0 0.00 0.00 0.00 34 1018.2
20190722030055 75 200 0.0 1.0 0.00 0.00 0.00 35 1018.1
20190722024600 76 190 0.0 1.0 0.00 0.00 0.00 34 1018.0
20190722023123 78 174 0.0 2.0 0.00 0.00 0.00 31 1017.7
20190722021600 78 222 0.0 4.0 0.00 0.00 0.00 30 1017.7
20190722020054 79 180 0.0 2.0 0.00 0.00 0.00 30 1017.6
20190722014628 80 183 0.0 4.0 0.00 0.00 0.00 29 1017.6
20190722013137 80 173 0.0 3.0 0.00 0.00 0.00 28 1017.5
20190722011552 81 195 1.0 5.0 0.00 0.00 0.00 27 1017.4
20190722010058 81 195 0.0 4.0 0.00 0.00 0.00 29 1017.5
20190722004652 82 190 0.0 3.0 0.00 0.00 0.00 27 1017.5
20190722003152 82 169 0.0 3.0 0.00 0.00 0.00 26 1017.6
20190722001617 83 183 0.0 6.0 0.00 0.00 0.00 26 1017.5
20190722000100 84 159 1.0 4.0 0.00 0.00 0.00 26 1017.5
20190721234613 85 181 0.0 5.0 0.00 0.00 0.00 26 1017.6
20190721233106 86 194 0.0 3.0 0.00 0.00 0.00 26 1017.7
20190721231606 85 187 1.0 7.0 0.00 0.00 0.00 25 1017.9
20190721230116 86 165 1.0 6.0 0.00 0.00 0.00 27 1017.9
20190721224540 86 171 1.0 5.0 0.00 0.00 0.00 25 1018.0
20190721223116 86 205 0.0 3.0 0.00 0.00 0.00 26 1018.2
20190721221542 86 165 1.0 4.0 0.00 0.00 0.00 25 1018.3
20190721220023 85 193 0.0 3.0 0.00 0.00 0.00 27 1018.3
20190721214535 85 136 0.0 3.0 0.00 0.00 0.00 26 1018.5
20190721213111 84 188 1.0 6.0 0.00 0.00 0.00 31 1018.6
20190721211533 84 193 1.0 7.0 0.00 0.00 0.00 28 1018.6
20190721210017 84 200 0.0 2.0 0.00 0.00 0.00 29 1018.8
20190721204526 82 205 0.0 3.0 0.00 0.00 0.00 32 1018.9
20190721203007 81 208 0.0 4.0 0.00 0.00 0.00 31 1019.2
20190721201505 82 205 0.0 7.0 0.00 0.00 0.00 31 1019.2
20190721200005 81 152 1.0 4.0 0.00 0.00 0.00 28 1019.2
20190721194746 80 188 0.0 5.0 0.00 0.00 0.00 34 1019.3
20190721193142 80 197 0.0 2.0 0.00 0.00 0.00 29 1019.5
20190721191754 79 193 0.0 3.0 0.00 0.00 0.00 30 1019.5
20190721190157 78 145 1.0 2.0 0.00 0.00 0.00 29 1019.6
20190721184756 77 193 0.0 2.0 0.00 0.00 0.00 28 1019.8
20190721183133 76 145 0.0 2.0 0.00 0.00 0.00 31 1019.8
20190721181640 75 170 0.0 1.0 0.00 0.00 0.00 31 1019.8
20190721180100 73 155 0.0 2.0 0.00 0.00 0.00 36 1019.9
20190721174621 73 174 0.0 2.0 0.00 0.00 0.00 36 1020.0
20190721173059 70 165 0.0 2.0 0.00 0.00 0.00 38 1020.0
20190721170050 68 184 0.0 2.0 0.00 0.00 0.00 39 1020.3
20190721164547 66 217 1.0 4.0 0.00 0.00 0.00 41 1020.4
20190721163139 66 181 0.0 3.0 0.00 0.00 0.00 40 1020.6
20190721161532 65 173 0.0 1.0 0.00 0.00 0.00 42 1020.6
20190721160056 63 169 0.0 0.0 0.00 0.00 0.00 48 1020.6
20190721154537 62 169 0.0 0.0 0.00 0.00 0.00 49 1020.6
20190721153030 59 193 0.0 0.0 0.00 0.00 0.00 54 1020.7
20190721151517 56 194 0.0 0.0 0.00 0.00 0.00 56 1020.7
20190721150010 54 194 0.0 1.0 0.00 0.00 0.00 59 1020.7
20190721144506 53 193 0.0 0.0 0.00 0.00 0.00 60 1020.6
20190721143002 52 193 0.0 0.0 0.00 0.00 0.00 66 1020.4
20190721141501 48 193 0.0 1.0 0.00 0.00 0.00 70 1020.5
20190721140134 44 193 0.0 0.0 0.00 0.00 0.00 79 1020.5
20190721134624 0 0.0 0.0 0.00 0.00 0.00 1020.4
20190721133245 0 0.0 0.0 0.00 0.00 0.00 1020.4
20190721131620 0 0.0 0.0 0.00 0.00 0.00 1020.3
20190721130126 0 0.0 0.0 0.00 0.00 0.00 1020.1